sensor_id;sensor_type;location;lat;lon;timestamp;pressure;altitude;pressure_sealevel;temperature;humidity
54038;BME280;39954;48.844;9.726;2022-10-31T00:02:08;96559.47;;;8.38;100.00
54038;BME280;39954;48.844;9.726;2022-10-31T00:03:43;96552.56;;;8.37;100.00
54038;BME280;39954;48.844;9.726;2022-10-31T00:07:01;96551.94;;;8.32;100.00
54038;BME280;39954;48.844;9.726;2022-10-31T00:08:30;96558.81;;;8.33;100.00
54038;BME280;39954;48.844;9.726;2022-10-31T00:10:32;96556.81;;;8.40;100.00
54038;BME280;39954;48.844;9.726;2022-10-31T00:12:10;96551.88;;;8.34;100.00
54038;BME280;39954;48.844;9.726;2022-10-31T00:13:49;96558.97;;;8.28;100.00
54038;BME280;39954;48.844;9.726;2022-10-31T00:15:09;96560.06;;;8.23;100.00
54038;BME280;39954;48.844;9.726;2022-10-31T00:16:49;96559.34;;;8.19;100.00
54038;BME280;39954;48.844;9.726;2022-10-31T00:18:24;96566.31;;;8.17;100.00
54038;BME280;39954;48.844;9.726;2022-10-31T00:19:50;96567.19;;;8.18;100.00
54038;BME280;39954;48.844;9.726;2022-10-31T00:21:08;96567.06;;;8.21;100.00
54038;BME280;39954;48.844;9.726;2022-10-31T00:22:31;96562.72;;;8.21;100.00
54038;BME280;39954;48.844;9.726;2022-10-31T00:24:06;96563.53;;;8.23;100.00
54038;BME280;39954;48.844;9.726;2022-10-31T00:29:40;96562.72;;;8.21;100.00
54038;BME280;39954;48.844;9.726;2022-10-31T00:31:12;96560.31;;;8.17;100.00
54038;BME280;39954;48.844;9.726;2022-10-31T00:34:35;96566.31;;;8.17;100.00
54038;BME280;39954;48.844;9.726;2022-10-31T00:35:50;96562.97;;;8.15;100.00
54038;BME280;39954;48.844;9.726;2022-10-31T00:37:14;96570.84;;;8.12;100.00
54038;BME280;39954;48.844;9.726;2022-10-31T00:38:32;96568.38;;;8.09;100.00
54038;BME280;39954;48.844;9.726;2022-10-31T00:39:46;96566.69;;;8.08;100.00
54038;BME280;39954;48.844;9.726;2022-10-31T00:41:16;96566.81;;;8.05;100.00
54038;BME280;39954;48.844;9.726;2022-10-31T00:42:33;96571.88;;;8.08;100.00
54038;BME280;39954;48.844;9.726;2022-10-31T00:44:14;96570.31;;;8.04;100.00
54038;BME280;39954;48.844;9.726;2022-10-31T00:46:02;96568.63;;;8.03;100.00
54038;BME280;39954;48.844;9.726;2022-10-31T00:47:24;96572.13;;;8.02;100.00
54038;BME280;39954;48.844;9.726;2022-10-31T00:49:17;96573.78;;;8.03;100.00
54038;BME280;39954;48.844;9.726;2022-10-31T00:50:45;96567.81;;;8.01;100.00
54038;BME280;39954;48.844;9.726;2022-10-31T00:52:05;96575.59;;;8.01;100.00
54038;BME280;39954;48.844;9.726;2022-10-31T00:53:51;96570.53;;;7.98;100.00
54038;BME280;39954;48.844;9.726;2022-10-31T00:55:36;96575.72;;;7.98;100.00
54038;BME280;39954;48.844;9.726;2022-10-31T00:57:18;96580.88;;;7.98;100.00
54038;BME280;39954;48.844;9.726;2022-10-31T00:58:55;96565.34;;;7.98;100.00
54038;BME280;39954;48.844;9.726;2022-10-31T01:00:22;96570.41;;;8.01;100.00
54038;BME280;39954;48.844;9.726;2022-10-31T01:01:46;96568.75;;;8.00;100.00
54038;BME280;39954;48.844;9.726;2022-10-31T01:03:10;96572.97;;;8.02;100.00
54038;BME280;39954;48.844;9.726;2022-10-31T01:04:26;96571.34;;;8.00;100.00
54038;BME280;39954;48.844;9.726;2022-10-31T01:07:26;96558.38;;;8.00;100.00
54038;BME280;39954;48.844;9.726;2022-10-31T01:08:49;96557.59;;;7.98;100.00
54038;BME280;39954;48.844;9.726;2022-10-31T01:10:57;96549.84;;;7.98;100.00
54038;BME280;39954;48.844;9.726;2022-10-31T01:12:13;96561.88;;;7.99;100.00
54038;BME280;39954;48.844;9.726;2022-10-31T01:13:39;96556.72;;;7.99;100.00
54038;BME280;39954;48.844;9.726;2022-10-31T01:15:07;96553.28;;;7.98;100.00
54038;BME280;39954;48.844;9.726;2022-10-31T01:16:33;96559.34;;;7.97;100.00
54038;BME280;39954;48.844;9.726;2022-10-31T01:17:59;96552.41;;;7.98;100.00
54038;BME280;39954;48.844;9.726;2022-10-31T01:19:30;96545.56;;;7.97;100.00
54038;BME280;39954;48.844;9.726;2022-10-31T01:21:06;96551.66;;;7.96;100.00
54038;BME280;39954;48.844;9.726;2022-10-31T01:22:41;96551.66;;;7.96;100.00
54038;BME280;39954;48.844;9.726;2022-10-31T01:24:13;96549.94;;;7.95;100.00
54038;BME280;39954;48.844;9.726;2022-10-31T01:25:22;96552.38;;;7.99;100.00
54038;BME280;39954;48.844;9.726;2022-10-31T01:26:45;96555.00;;;7.98;100.00
54038;BME280;39954;48.844;9.726;2022-10-31T01:28:38;96542.28;;;7.93;100.00
54038;BME280;39954;48.844;9.726;2022-10-31T01:30:35;96549.19;;;7.93;100.00
54038;BME280;39954;48.844;9.726;2022-10-31T01:32:15;96555.00;;;7.98;100.00
54038;BME280;39954;48.844;9.726;2022-10-31T01:38:02;96550.44;;;7.82;100.00
54038;BME280;39954;48.844;9.726;2022-10-31T01:39:47;96542.84;;;7.78;100.00
54038;BME280;39954;48.844;9.726;2022-10-31T01:43:03;96552.53;;;7.73;100.00
54038;BME280;39954;48.844;9.726;2022-10-31T01:46:11;96544.03;;;7.69;100.00
54038;BME280;39954;48.844;9.726;2022-10-31T01:47:50;96542.50;;;7.65;100.00
54038;BME280;39954;48.844;9.726;2022-10-31T01:49:24;96540.78;;;7.64;100.00
54038;BME280;39954;48.844;9.726;2022-10-31T01:50:48;96539.06;;;7.65;100.00
54038;BME280;39954;48.844;9.726;2022-10-31T01:52:21;96539.16;;;7.61;100.00
54038;BME280;39954;48.844;9.726;2022-10-31T01:54:04;96537.56;;;7.59;100.00
54038;BME280;39954;48.844;9.726;2022-10-31T01:56:00;96531.72;;;7.54;100.00
54038;BME280;39954;48.844;9.726;2022-10-31T01:57:31;96537.75;;;7.53;100.00
54038;BME280;39954;48.844;9.726;2022-10-31T01:58:34;96527.41;;;7.53;100.00
54038;BME280;39954;48.844;9.726;2022-10-31T02:00:12;96537.75;;;7.53;100.00
54038;BME280;39954;48.844;9.726;2022-10-31T02:02:22;96531.75;;;7.52;100.00
54038;BME280;39954;48.844;9.726;2022-10-31T02:04:02;96529.13;;;7.54;100.00
54038;BME280;39954;48.844;9.726;2022-10-31T02:05:26;96533.38;;;7.55;100.00
54038;BME280;39954;48.844;9.726;2022-10-31T02:06:47;96528.22;;;7.55;100.00
54038;BME280;39954;48.844;9.726;2022-10-31T02:08:18;96533.38;;;7.55;100.00
54038;BME280;39954;48.844;9.726;2022-10-31T02:09:45;96541.03;;;7.58;100.00
54038;BME280;39954;48.844;9.726;2022-10-31T02:11:10;96535.94;;;7.56;100.00
54038;BME280;39954;48.844;9.726;2022-10-31T02:12:30;96545.41;;;7.56;100.00
54038;BME280;39954;48.844;9.726;2022-10-31T02:14:07;96535.97;;;7.55;100.00
54038;BME280;39954;48.844;9.726;2022-10-31T02:15:40;96537.75;;;7.53;100.00
54038;BME280;39954;48.844;9.726;2022-10-31T02:19:19;96534.50;;;7.48;100.00
54038;BME280;39954;48.844;9.726;2022-10-31T02:20:39;96534.44;;;7.49;100.00
54038;BME280;39954;48.844;9.726;2022-10-31T02:22:05;96532.66;;;7.51;100.00
54038;BME280;39954;48.844;9.726;2022-10-31T02:23:56;96534.41;;;7.51;100.00
54038;BME280;39954;48.844;9.726;2022-10-31T02:27:56;96529.13;;;7.54;100.00
54038;BME280;39954;48.844;9.726;2022-10-31T02:30:00;96530.19;;;7.48;100.00
54038;BME280;39954;48.844;9.726;2022-10-31T02:31:50;96530.19;;;7.48;100.00
54038;BME280;39954;48.844;9.726;2022-10-31T02:33:53;96531.06;;;7.47;100.00
54038;BME280;39954;48.844;9.726;2022-10-31T02:35:15;96533.66;;;7.47;100.00
54038;BME280;39954;48.844;9.726;2022-10-31T02:38:32;96534.41;;;7.51;100.00
54038;BME280;39954;48.844;9.726;2022-10-31T02:42:29;96528.31;;;7.52;100.00
54038;BME280;39954;48.844;9.726;2022-10-31T02:44:08;96532.69;;;7.50;100.00
54038;BME280;39954;48.844;9.726;2022-10-31T02:46:07;96526.81;;;7.46;100.00
54038;BME280;39954;48.844;9.726;2022-10-31T02:48:02;96523.44;;;7.44;100.00
54038;BME280;39954;48.844;9.726;2022-10-31T02:49:45;96530.34;;;7.44;100.00
54038;BME280;39954;48.844;9.726;2022-10-31T02:51:09;96525.28;;;7.40;100.00
54038;BME280;39954;48.844;9.726;2022-10-31T02:55:08;96526.94;;;7.43;100.00
54038;BME280;39954;48.844;9.726;2022-10-31T02:56:38;96536.31;;;7.46;100.00
54038;BME280;39954;48.844;9.726;2022-10-31T02:58:20;96531.16;;;7.46;100.00
54038;BME280;39954;48.844;9.726;2022-10-31T02:59:35;96527.78;;;7.44;100.00
54038;BME280;39954;48.844;9.726;2022-10-31T03:07:54;96524.91;;;7.28;100.00
54038;BME280;39954;48.844;9.726;2022-10-31T03:08:20;96527.56;;;7.26;100.00
54038;BME280;39954;48.844;9.726;2022-10-31T03:10:03;96523.25;;;7.25;100.00
54038;BME280;39954;48.844;9.726;2022-10-31T03:15:33;96528.41;;;7.27;100.00
54038;BME280;39954;48.844;9.726;2022-10-31T03:17:20;96529.00;;;7.33;100.00
54038;BME280;39954;48.844;9.726;2022-10-31T03:18:39;96530.69;;;7.34;100.00
54038;BME280;39954;48.844;9.726;2022-10-31T03:20:19;96536.75;;;7.33;100.00
54038;BME280;39954;48.844;9.726;2022-10-31T03:21:46;96528.13;;;7.34;100.00
54038;BME280;39954;48.844;9.726;2022-10-31T03:23:16;96536.75;;;7.33;100.00
54038;BME280;39954;48.844;9.726;2022-10-31T03:24:58;96525.53;;;7.34;100.00
54038;BME280;39954;48.844;9.726;2022-10-31T03:26:48;96527.22;;;7.35;100.00
54038;BME280;39954;48.844;9.726;2022-10-31T03:28:48;96529.06;;;7.32;100.00
54038;BME280;39954;48.844;9.726;2022-10-31T03:30:33;96528.34;;;7.28;100.00
54038;BME280;39954;48.844;9.726;2022-10-31T03:37:20;96528.44;;;7.25;100.00
54038;BME280;39954;48.844;9.726;2022-10-31T03:39:04;96525.09;;;7.23;100.00
54038;BME280;39954;48.844;9.726;2022-10-31T03:40:46;96525.91;;;7.24;100.00
54038;BME280;39954;48.844;9.726;2022-10-31T03:42:10;96526.88;;;7.21;100.00
54038;BME280;39954;48.844;9.726;2022-10-31T03:45:05;96523.38;;;7.22;100.00
54038;BME280;39954;48.844;9.726;2022-10-31T03:46:37;96525.09;;;7.23;100.00
54038;BME280;39954;48.844;9.726;2022-10-31T03:47:50;96514.84;;;7.20;100.00
54038;BME280;39954;48.844;9.726;2022-10-31T03:49:13;96524.28;;;7.21;100.00
54038;BME280;39954;48.844;9.726;2022-10-31T03:52:41;96523.59;;;7.16;100.00
54038;BME280;39954;48.844;9.726;2022-10-31T03:54:18;96522.78;;;7.15;100.00
54038;BME280;39954;48.844;9.726;2022-10-31T03:55:52;96517.59;;;7.15;100.00
54038;BME280;39954;48.844;9.726;2022-10-31T03:57:41;96520.19;;;7.15;100.00
54038;BME280;39954;48.844;9.726;2022-10-31T03:59:23;96518.44;;;7.16;100.00
54038;BME280;39954;48.844;9.726;2022-10-31T04:00:34;96521.81;;;7.18;100.00
54038;BME280;39954;48.844;9.726;2022-10-31T04:02:00;96518.41;;;7.17;100.00
54038;BME280;39954;48.844;9.726;2022-10-31T04:03:26;96519.97;;;7.22;100.00
54038;BME280;39954;48.844;9.726;2022-10-31T04:04:50;96515.59;;;7.24;100.00
54038;BME280;39954;48.844;9.726;2022-10-31T04:06:13;96527.44;;;7.29;100.00
54038;BME280;39954;48.844;9.726;2022-10-31T04:09:45;96519.44;;;7.35;100.00
54038;BME280;39954;48.844;9.726;2022-10-31T04:11:26;96519.41;;;7.37;100.00
54038;BME280;39954;48.844;9.726;2022-10-31T04:13:03;96521.88;;;7.40;100.00
54038;BME280;39954;48.844;9.726;2022-10-31T04:15:47;96526.09;;;7.43;100.00
54038;BME280;39954;48.844;9.726;2022-10-31T04:17:36;96514.00;;;7.43;100.00
54038;BME280;39954;48.844;9.726;2022-10-31T04:18:56;96509.72;;;7.42;100.00
54038;BME280;39954;48.844;9.726;2022-10-31T04:22:10;96505.41;;;7.43;100.00
